Terminal Aerodrome Forecast
Issued by NWS Melbourne, FL

Current Version | Previous Version | Text Only | Print | Product List | Glossary On
Versions: 1 2 3 4 5 6 7 8 9 10 11 12
000
FTUS42 KMLB 181120
TAFVRB
TAF
KVRB 181120Z 1812/1912 33011G17KT P6SM SKC
     FM181700 36011KT P6SM SCT025
     FM190000 33004KT P6SM BKN030 BKN250=

USA.gov is the U.S. government's official web portal to all federal, state and local government web resources and services.